Observation data for Seminole on 05/24/2020      Previous  Date  Next       Current Mesonet Observations  Soil Data  Daily Summary Page  Observations in Plain Language
KSM1 240500Z 13008KT 21/08 A2987 RMK A01 T02080079  RH  045%=      5-min Rain = 0
KSM1 240505Z 14008KT 21/08 A2987 RMK A01 T02070080  RH  045%=      5-min Rain = 0
KSM1 240510Z 15007KT 21/08 A2987 RMK A01 T02060081  RH  046%=      5-min Rain = 0
KSM1 240515Z 16008KT 20/08 A2987 RMK A01 T02040084  RH  047%=      5-min Rain = 0
KSM1 240520Z 16008KT 21/09 A2987 RMK A01 T02070089  RH  048%=      5-min Rain = 0
KSM1 240525Z 15008KT 21/09 A2987 RMK A01 T02060090  RH  049%=      5-min Rain = 0
KSM1 240530Z 14008KT 20/09 A2988 RMK A01 T02010087  RH  049%=      5-min Rain = 0
KSM1 240535Z 13008KT 20/09 A2988 RMK A01 T01950086  RH  051%=      5-min Rain = 0
KSM1 240540Z 14008KT 19/09 A2988 RMK A01 T01930089  RH  052%=      5-min Rain = 0
KSM1 240545Z 13008KT 19/09 A2989 RMK A01 T01930089  RH  053%=      5-min Rain = 0
KSM1 240550Z 12009KT 19/09 A2989 RMK A01 T01940091  RH  053%=      5-min Rain = 0
KSM1 240555Z 11009KT 20/09 A2989 RMK A01 T01950091  RH  053%=      5-min Rain = 0
KSM1 240600Z 12008KT 20/09 A2989 RMK A01 T01950088  RH  051%=      5-min Rain = 0
KSM1 240605Z 13008KT 19/09 A2989 RMK A01 T01930087  RH  052%=      5-min Rain = 0
KSM1 240610Z 13008KT 19/09 A2989 RMK A01 T01910087  RH  052%=      5-min Rain = 0
KSM1 240615Z 14007KT 19/09 A2988 RMK A01 T01890088  RH  053%=      5-min Rain = 0
KSM1 240620Z 14007KT 19/09 A2988 RMK A01 T01870089  RH  054%=      5-min Rain = 0
KSM1 240625Z 14007KT 19/09 A2988 RMK A01 T01850090  RH  055%=      5-min Rain = 0
KSM1 240630Z 15007KT 18/09 A2988 RMK A01 T01840093  RH  057%=      5-min Rain = 0
KSM1 240635Z 14008KT 19/10 A2988 RMK A01 T01850097  RH  058%=      5-min Rain = 0
KSM1 240640Z 14008KT 19/10 A2988 RMK A01 T01870101  RH  059%=      5-min Rain = 0
KSM1 240645Z 14008KT 19/11 A2988 RMK A01 T01880105  RH  060%=      5-min Rain = 0
KSM1 240650Z 14008KT 19/11 A2987 RMK A01 T01900109  RH  062%=      5-min Rain = 0
KSM1 240655Z 14009KT 19/11 A2987 RMK A01 T01900113  RH  063%=      5-min Rain = 0
KSM1 240700Z 14010KT 19/12 A2987 RMK A01 T01930118  RH  064%=      5-min Rain = 0
KSM1 240705Z 14011KT 20/12 A2987 RMK A01 T01960119  RH  063%=      5-min Rain = 0
KSM1 240710Z 14010KT 20/12 A2986 RMK A01 T01970119  RH  063%=      5-min Rain = 0
KSM1 240715Z 14010KT 20/12 A2986 RMK A01 T01970119  RH  063%=      5-min Rain = 0
KSM1 240720Z 13008KT 20/12 A2986 RMK A01 T01970119  RH  063%=      5-min Rain = 0
KSM1 240725Z 13008KT 19/12 A2986 RMK A01 T01940118  RH  064%=      5-min Rain = 0
KSM1 240730Z 11008KT 19/12 A2986 RMK A01 T01900115  RH  064%=      5-min Rain = 0
KSM1 240735Z 12007KT 18/11 A2986 RMK A01 T01840113  RH  066%=      5-min Rain = 0
KSM1 240740Z 13007KT 18/11 A2986 RMK A01 T01820113  RH  066%=      5-min Rain = 0
KSM1 240745Z 13008KT 18/11 A2986 RMK A01 T01810113  RH  066%=      5-min Rain = 0
KSM1 240750Z 12007KT 18/11 A2986 RMK A01 T01800113  RH  067%=      5-min Rain = 0
KSM1 240755Z 11008KT 18/11 A2986 RMK A01 T01780112  RH  068%=      5-min Rain = 0
KSM1 240800Z 12008KT 18/11 A2986 RMK A01 T01770111  RH  068%=      5-min Rain = 0
KSM1 240805Z 13008KT 18/11 A2986 RMK A01 T01760111  RH  068%=      5-min Rain = 0
KSM1 240810Z 14009KT 17/11 A2986 RMK A01 T01740111  RH  069%=      5-min Rain = 0
KSM1 240815Z 14008KT 17/11 A2986 RMK A01 T01730111  RH  069%=      5-min Rain = 0
KSM1 240820Z 13008KT 17/11 A2986 RMK A01 T01720111  RH  069%=      5-min Rain = 0
KSM1 240825Z 12007KT 17/11 A2986 RMK A01 T01710110  RH  070%=      5-min Rain = 0
KSM1 240830Z 11007KT 17/11 A2986 RMK A01 T01690110  RH  070%=      5-min Rain = 0
KSM1 240835Z 12008KT 17/11 A2986 RMK A01 T01680110  RH  071%=      5-min Rain = 0
KSM1 240840Z 13008KT 17/11 A2986 RMK A01 T01680110  RH  071%=      5-min Rain = 0
KSM1 240845Z 13007KT 17/11 A2986 RMK A01 T01670110  RH  071%=      5-min Rain = 0
KSM1 240850Z 13006KT 17/11 A2986 RMK A01 T01660110  RH  072%=      5-min Rain = 0
KSM1 240855Z 11007KT 16/11 A2986 RMK A01 T01640109  RH  072%=      5-min Rain = 0
KSM1 240900Z 11006KT 16/11 A2986 RMK A01 T01630109  RH  073%=      5-min Rain = 0
KSM1 240905Z 12005KT 16/11 A2986 RMK A01 T01620109  RH  073%=      5-min Rain = 0
KSM1 240910Z 15005KT 16/11 A2986 RMK A01 T01600109  RH  074%=      5-min Rain = 0
KSM1 240915Z 15005KT 16/11 A2985 RMK A01 T01570108  RH  075%=      5-min Rain = 0
KSM1 240920Z 15004KT 15/11 A2985 RMK A01 T01540107  RH  076%=      5-min Rain = 0
KSM1 240925Z 14004KT 15/11 A2986 RMK A01 T01520106  RH  077%=      5-min Rain = 0
KSM1 240930Z 13004KT 15/11 A2985 RMK A01 T01490105  RH  078%=      5-min Rain = 0
KSM1 240935Z 13005KT 15/11 A2985 RMK A01 T01490105  RH  078%=      5-min Rain = 0
KSM1 240940Z 15005KT 15/10 A2985 RMK A01 T01480104  RH  078%=      5-min Rain = 0
KSM1 240945Z 16005KT 15/10 A2985 RMK A01 T01450104  RH  079%=      5-min Rain = 0
KSM1 240950Z 17005KT 15/11 A2985 RMK A01 T01450105  RH  080%=      5-min Rain = 0
KSM1 240955Z 16004KT 15/11 A2985 RMK A01 T01450106  RH  080%=      5-min Rain = 0
KSM1 241000Z 14004KT 15/11 A2986 RMK A01 T01450105  RH  079%=      5-min Rain = 0
KSM1 241005Z 13003KT 14/10 A2986 RMK A01 T01420101  RH  079%=      5-min Rain = 0
KSM1 241010Z 13003KT 14/10 A2986 RMK A01 T01400101  RH  080%=      5-min Rain = 0
KSM1 241015Z 13004KT 14/10 A2986 RMK A01 T01400102  RH  080%=      5-min Rain = 0
KSM1 241020Z 13004KT 14/11 A2986 RMK A01 T01440105  RH  080%=      5-min Rain = 0
KSM1 241025Z 13005KT 15/10 A2986 RMK A01 T01450104  RH  079%=      5-min Rain = 0
KSM1 241030Z 12003KT 14/10 A2986 RMK A01 T01440104  RH  079%=      5-min Rain = 0
KSM1 241035Z 12003KT 14/10 A2986 RMK A01 T01430103  RH  079%=      5-min Rain = 0
KSM1 241040Z 12003KT 14/10 A2986 RMK A01 T01410101  RH  079%=      5-min Rain = 0
KSM1 241045Z 11003KT 14/10 A2986 RMK A01 T01390100  RH  080%=      5-min Rain = 0
KSM1 241050Z 11004KT 14/10 A2986 RMK A01 T01390101  RH  081%=      5-min Rain = 0
KSM1 241055Z 11003KT 14/10 A2986 RMK A01 T01400102  RH  081%=      5-min Rain = 0
KSM1 241100Z 12004KT 14/10 A2986 RMK A01 T01400101  RH  080%=      5-min Rain = 0
KSM1 241105Z 12004KT 14/10 A2986 RMK A01 T01390101  RH  080%=      5-min Rain = 0
KSM1 241110Z 11005KT 14/10 A2986 RMK A01 T01380100  RH  081%=      5-min Rain = 0
KSM1 241115Z 11006KT 14/10 A2985 RMK A01 T01370102  RH  082%=      5-min Rain = 0
KSM1 241120Z 12006KT 14/11 A2985 RMK A01 T01400105  RH  082%=      5-min Rain = 0
KSM1 241125Z 11006KT 14/10 A2985 RMK A01 T01410104  RH  081%=      5-min Rain = 0
KSM1 241130Z 11005KT 14/10 A2985 RMK A01 T01400104  RH  082%=      5-min Rain = 0
KSM1 241135Z 11003KT 14/10 A2985 RMK A01 T01400104  RH  082%=      5-min Rain = 0
KSM1 241140Z 12004KT 14/10 A2985 RMK A01 T01390103  RH  082%=      5-min Rain = 0
KSM1 241145Z 13004KT 14/10 A2986 RMK A01 T01380102  RH  082%=      5-min Rain = 0
KSM1 241150Z 15004KT 14/10 A2985 RMK A01 T01350100  RH  082%=      5-min Rain = 0
KSM1 241155Z 12004KT 13/10 A2985 RMK A01 T01320099  RH  083%=      5-min Rain = 0
KSM1 241200Z 10005KT 13/10 A2985 RMK A01 T01310100  RH  084%=      5-min Rain = 0
KSM1 241205Z 11005KT 13/10 A2986 RMK A01 T01340104  RH  084%=      5-min Rain = 0
KSM1 241210Z 14006KT 14/11 A2986 RMK A01 T01390105  RH  083%=      5-min Rain = 0
KSM1 241215Z 14006KT 14/11 A2985 RMK A01 T01420105  RH  081%=      5-min Rain = 0
KSM1 241220Z 14006KT 14/11 A2986 RMK A01 T01430105  RH  081%=      5-min Rain = 0
KSM1 241225Z 14005KT 14/11 A2986 RMK A01 T01440105  RH  080%=      5-min Rain = 0
KSM1 241230Z 14005KT 15/11 A2986 RMK A01 T01460106  RH  080%=      5-min Rain = 0
KSM1 241235Z 13006KT 15/11 A2986 RMK A01 T01510107  RH  078%=      5-min Rain = 0
KSM1 241240Z 13006KT 16/11 A2986 RMK A01 T01560108  RH  075%=      5-min Rain = 0
KSM1 241245Z 14005KT 16/11 A2986 RMK A01 T01610108  RH  074%=      5-min Rain = 0
KSM1 241250Z 15006KT 16/11 A2986 RMK A01 T01640108  RH  072%=      5-min Rain = 0
KSM1 241255Z 15006KT 17/11 A2986 RMK A01 T01690108  RH  070%=      5-min Rain = 0
KSM1 241300Z 13007KT 17/11 A2986 RMK A01 T01730108  RH  068%=      5-min Rain = 0
KSM1 241305Z 14007KT 18/11 A2986 RMK A01 T01760109  RH  067%=      5-min Rain = 0
KSM1 241310Z 15007KT 18/11 A2986 RMK A01 T01780109  RH  066%=      5-min Rain = 0
KSM1 241315Z 16007KT 18/11 A2985 RMK A01 T01810110  RH  066%=      5-min Rain = 0
KSM1 241320Z 15007KT 18/11 A2986 RMK A01 T01840112  RH  065%=      5-min Rain = 0
KSM1 241325Z 15008KT 19/11 A2986 RMK A01 T01870113  RH  064%=      5-min Rain = 0
KSM1 241330Z 16008KT 19/11 A2986 RMK A01 T01890114  RH  064%=      5-min Rain = 0
KSM1 241335Z 17010KT 19/12 A2985 RMK A01 T01920116  RH  063%=      5-min Rain = 0
KSM1 241340Z 18010KT 20/12 A2985 RMK A01 T01960119  RH  063%=      5-min Rain = 0
KSM1 241345Z 18012KT 20/12 A2985 RMK A01 T02000122  RH  063%=      5-min Rain = 0
KSM1 241350Z 17013KT 20/12 A2985 RMK A01 T02020123  RH  063%=      5-min Rain = 0
KSM1 241355Z 18012G17KT 20/12 A2985 RMK A01 T02040124  RH  062%=      5-min Rain = 0
KSM1 241400Z 18012G18KT 21/12 A2985 RMK A01 T02060124  RH  062%=      5-min Rain = 0
KSM1 241405Z 18012KT 21/12 A2985 RMK A01 T02090124  RH  061%=      5-min Rain = 0
KSM1 241410Z 19010KT 21/12 A2985 RMK A01 T02120124  RH  060%=      5-min Rain = 0
KSM1 241415Z 20010KT 22/13 A2985 RMK A01 T02150126  RH  059%=      5-min Rain = 0
KSM1 241420Z 19011KT 22/13 A2985 RMK A01 T02180127  RH  058%=      5-min Rain = 0
KSM1 241425Z 19013KT 22/13 A2986 RMK A01 T02200126  RH  057%=      5-min Rain = 0
KSM1 241430Z 20013KT 22/13 A2986 RMK A01 T02190126  RH  058%=      5-min Rain = 0
KSM1 241435Z 20011KT 22/13 A2986 RMK A01 T02190125  RH  057%=      5-min Rain = 0
KSM1 241440Z 21011KT 22/13 A2986 RMK A01 T02210125  RH  057%=      5-min Rain = 0
KSM1 241445Z 19011KT 22/12 A2986 RMK A01 T02240124  RH  055%=      5-min Rain = 0
KSM1 241450Z 21009G14KT 23/12 A2986 RMK A01 T02250124  RH  055%=      5-min Rain = 0
KSM1 241455Z 18009KT 23/12 A2986 RMK A01 T02250124  RH  055%=      5-min Rain = 0
KSM1 241500Z 18009KT 23/12 A2986 RMK A01 T02280124  RH  054%=      5-min Rain = 0
KSM1 241505Z 18009KT 23/12 A2986 RMK A01 T02300124  RH  053%=      5-min Rain = 0
KSM1 241510Z 18009KT 23/13 A2986 RMK A01 T02340126  RH  052%=      5-min Rain = 0
KSM1 241515Z 17008G13KT 24/13 A2986 RMK A01 T02370126  RH  052%=      5-min Rain = 0
KSM1 241520Z 17007KT 24/13 A2985 RMK A01 T02400126  RH  051%=      5-min Rain = 0
KSM1 241525Z 17008KT 24/13 A2985 RMK A01 T02420128  RH  051%=      5-min Rain = 0
KSM1 241530Z 16008KT 25/13 A2985 RMK A01 T02450128  RH  050%=      5-min Rain = 0
KSM1 241535Z 16009KT 25/13 A2985 RMK A01 T02480128  RH  049%=      5-min Rain = 0
KSM1 241540Z 17006G11KT 25/13 A2984 RMK A01 T02510128  RH  048%=      5-min Rain = 0
KSM1 241545Z 16008KT 26/12 A2984 RMK A01 T02550123  RH  046%=      5-min Rain = 0
KSM1 241550Z 18006G12KT 26/13 A2984 RMK A01 T02560125  RH  046%=      5-min Rain = 0
KSM1 241555Z 20007G14KT 26/12 A2984 RMK A01 T02580123  RH  045%=      5-min Rain = 0
KSM1 241600Z 20007KT 26/12 A2984 RMK A01 T02610123  RH  044%=      5-min Rain = 0
KSM1 241605Z 21007KT 26/12 A2984 RMK A01 T02620119  RH  043%=      5-min Rain = 0
KSM1 241610Z 20004G9KT 26/12 A2984 RMK A01 T02620118  RH  042%=      5-min Rain = 0
KSM1 241615Z 20006KT 27/11 A2984 RMK A01 T02650114  RH  040%=      5-min Rain = 0
KSM1 241620Z 23004KT 27/11 A2984 RMK A01 T02650107  RH  038%=      5-min Rain = 0
KSM1 241625Z 16003KT 27/11 A2983 RMK A01 T02700109  RH  038%=      5-min Rain = 0
KSM1 241630Z 15004KT 27/11 A2983 RMK A01 T02700111  RH  038%=      5-min Rain = 0
KSM1 241635Z 18005KT 27/11 A2983 RMK A01 T02720106  RH  037%=      5-min Rain = 0
KSM1 241640Z 15004KT 27/10 A2983 RMK A01 T02740104  RH  036%=      5-min Rain = 0
KSM1 241645Z 22005KT 28/10 A2983 RMK A01 T02760104  RH  035%=      5-min Rain = 0
KSM1 241650Z 22003KT 28/10 A2983 RMK A01 T02770102  RH  035%=      5-min Rain = 0
KSM1 241655Z 21002G7KT 28/10 A2983 RMK A01 T02780103  RH  035%=      5-min Rain = 0
KSM1 241700Z 18003KT 28/10 A2983 RMK A01 T02790102  RH  034%=      5-min Rain = 0
KSM1 241705Z 19004KT 28/10 A2983 RMK A01 T02820097  RH  033%=      5-min Rain = 0
KSM1 241710Z 18004KT 28/10 A2983 RMK A01 T02830096  RH  032%=      5-min Rain = 0
KSM1 241715Z 17004G9KT 29/10 A2983 RMK A01 T02880096  RH  031%=      5-min Rain = 0
KSM1 241720Z 17005KT 29/10 A2983 RMK A01 T02900096  RH  031%=      5-min Rain = 0
KSM1 241725Z 18006KT 29/10 A2983 RMK A01 T02910095  RH  030%=      5-min Rain = 0
KSM1 241730Z 21005KT 29/09 A2983 RMK A01 T02920094  RH  030%=      5-min Rain = 0
KSM1 241735Z 24006KT 29/09 A2982 RMK A01 T02940090  RH  029%=      5-min Rain = 0
KSM1 241740Z 19003G8KT 30/09 A2982 RMK A01 T02960088  RH  028%=      5-min Rain = 0
KSM1 241745Z 28001KT 30/09 A2982 RMK A01 T02990088  RH  028%=      5-min Rain = 0
KSM1 241750Z 16002KT 30/09 A2982 RMK A01 T03010087  RH  027%=      5-min Rain = 0
KSM1 241755Z 23005KT 30/09 A2982 RMK A01 T03020086  RH  027%=      5-min Rain = 0
KSM1 241800Z 20003KT 30/09 A2982 RMK A01 T02990085  RH  027%=      5-min Rain = 0
KSM1 241805Z 17004G9KT 30/08 A2982 RMK A01 T03010084  RH  027%=      5-min Rain = 0
KSM1 241810Z 15003KT 30/08 A2982 RMK A01 T03010081  RH  026%=      5-min Rain = 0
KSM1 241815Z 04003KT 30/08 A2981 RMK A01 T03010083  RH  026%=      5-min Rain = 0
KSM1 241820Z 16006KT 31/08 A2981 RMK A01 T03080079  RH  025%=      5-min Rain = 0
KSM1 241825Z 16005KT 31/07 A2981 RMK A01 T03110072  RH  023%=      5-min Rain = 0
KSM1 241830Z 21004KT 31/07 A2981 RMK A01 T03110066  RH  022%=      5-min Rain = 0
KSM1 241835Z 25004KT 31/06 A298 RMK A01 T03090059  RH  021%=      5-min Rain = 0
KSM1 241840Z 30002KT 31/06 A298 RMK A01 T03110056  RH  021%=      5-min Rain = 0
KSM1 241845Z 22004KT 31/05 A298 RMK A01 T03120050  RH  020%=      5-min Rain = 0
KSM1 241850Z 17002KT 31/05 A298 RMK A01 T03140047  RH  019%=      5-min Rain = 0
KSM1 241855Z 24003KT 32/05 A298 RMK A01 T03150048  RH  019%=      5-min Rain = 0
KSM1 241900Z 17001KT 31/05 A298 RMK A01 T03140049  RH  019%=      5-min Rain = 0
KSM1 241905Z 03001KT 31/05 A2979 RMK A01 T03130053  RH  020%=      5-min Rain = 0
KSM1 241910Z 20005G11KT 32/06 A2979 RMK A01 T03170056  RH  020%=      5-min Rain = 0
KSM1 241915Z 15005KT 32/05 A2979 RMK A01 T03190051  RH  019%=      5-min Rain = 0
KSM1 241920Z 22006KT 32/05 A2978 RMK A01 T03160049  RH  019%=      5-min Rain = 0
KSM1 241925Z 32004KT 31/04 A2978 RMK A01 T03130043  RH  019%=      5-min Rain = 0
KSM1 241930Z 09004KT 32/04 A2978 RMK A01 T03160039  RH  018%=      5-min Rain = 0
KSM1 241935Z 03003KT 32/04 A2978 RMK A01 T03210037  RH  017%=      5-min Rain = 0
KSM1 241940Z 00003KT 32/04 A2977 RMK A01 T03230039  RH  017%=      5-min Rain = 0
KSM1 241945Z 04006G11KT 32/04 A2977 RMK A01 T03230042  RH  017%=      5-min Rain = 0
KSM1 241950Z 15007KT 33/04 A2977 RMK A01 T03250041  RH  017%=      5-min Rain = 0
KSM1 241955Z 08004KT 33/04 A2976 RMK A01 T03250040  RH  017%=      5-min Rain = 0
KSM1 242000Z 02003KT 32/04 A2976 RMK A01 T03230042  RH  017%=      5-min Rain = 0
KSM1 242005Z 26004KT 32/05 A2976 RMK A01 T03240046  RH  018%=      5-min Rain = 0
KSM1 242010Z 25009G14KT 33/05 A2976 RMK A01 T03290045  RH  017%=      5-min Rain = 0
KSM1 242015Z 24004KT 32/05 A2976 RMK A01 T03230045  RH  018%=      5-min Rain = 0
KSM1 242020Z 24003KT 33/04 A2975 RMK A01 T03330040  RH  016%=      5-min Rain = 0
KSM1 242025Z 16006KT 33/04 A2975 RMK A01 T03340035  RH  016%=      5-min Rain = 0
KSM1 242030Z 14003KT 33/02 A2975 RMK A01 T03330022  RH  014%=      5-min Rain = 0
KSM1 242035Z 11005KT 33/01 A2974 RMK A01 T03290010  RH  013%=      5-min Rain = 0
KSM1 242040Z 15007G13KT 32/01 A2974 RMK A01 T03230009  RH  014%=      5-min Rain = 0
KSM1 242045Z 16007KT 32/01 A2974 RMK A01 T03240006  RH  013%=      5-min Rain = 0
KSM1 242050Z 17008KT 33/00 A2974 RMK A01 T03260004  RH  013%=      5-min Rain = 0
KSM1 242055Z 20006KT 33/01 A2973 RMK A01 T03250005  RH  013%=      5-min Rain = 0
KSM1 242100Z 22004KT 33/00 A2972 RMK A01 T03250003  RH  013%=      5-min Rain = 0
KSM1 242105Z 17006KT 32/00 A2972 RMK A01 T03240004  RH  013%=      5-min Rain = 0
KSM1 242110Z 17006G11KT 32/00 A2972 RMK A01 T03240003  RH  013%=      5-min Rain = 0
KSM1 242115Z 18003G8KT 32/00 A2971 RMK A01 T03220000  RH  013%=      5-min Rain = 0
KSM1 242120Z 14005KT 32/00 A2971 RMK A01 T03230002  RH  013%=      5-min Rain = 0
KSM1 242125Z 08004G9KT 32/M01 A297 RMK A01 T03211006  RH  012%=      5-min Rain = 0
KSM1 242130Z 09004KT 32/M01 A297 RMK A01 T03201005  RH  012%=      5-min Rain = 0
KSM1 242135Z 26005KT 32/M01 A2969 RMK A01 T03231006  RH  012%=      5-min Rain = 0
KSM1 242140Z 23004G9KT 32/M01 A2969 RMK A01 T03231008  RH  012%=      5-min Rain = 0
KSM1 242145Z 20003KT 33/M01 A2969 RMK A01 T03251006  RH  012%=      5-min Rain = 0
KSM1 242150Z 18002KT 33/M01 A2969 RMK A01 T03271007  RH  012%=      5-min Rain = 0
KSM1 242155Z 17004KT 33/M00 A2969 RMK A01 T03261003  RH  012%=      5-min Rain = 0
KSM1 242200Z 16004KT 33/M00 A2968 RMK A01 T03271001  RH  012%=      5-min Rain = 0
KSM1 242205Z 18003KT 32/00 A2968 RMK A01 T03240001  RH  013%=      5-min Rain = 0
KSM1 242210Z 18003KT 32/00 A2968 RMK A01 T03230000  RH  013%=      5-min Rain = 0
KSM1 242215Z 12004KT 32/00 A2967 RMK A01 T03210004  RH  013%=      5-min Rain = 0
KSM1 242220Z 11005KT 32/01 A2967 RMK A01 T03200006  RH  014%=      5-min Rain = 0
KSM1 242225Z 13006KT 33/01 A2967 RMK A01 T03280010  RH  013%=      5-min Rain = 0
KSM1 242230Z 12005G10KT 34/01 A2967 RMK A01 T03360010  RH  013%=      5-min Rain = 0
KSM1 242235Z 14007G12KT 33/M01 A2967 RMK A01 T03311008  RH  011%=      5-min Rain = 0
KSM1 242240Z 13007KT 34/M01 A2967 RMK A01 T03351009  RH  011%=      5-min Rain = 0
KSM1 242245Z 12003KT 34/M01 A2966 RMK A01 T03351006  RH  011%=      5-min Rain = 0
KSM1 242250Z 13003KT 33/M01 A2966 RMK A01 T03331008  RH  011%=      5-min Rain = 0
KSM1 242255Z 12007G12KT 33/M00 A2966 RMK A01 T03271004  RH  012%=      5-min Rain = 0
KSM1 242300Z 14009KT 32/00 A2966 RMK A01 T03230001  RH  013%=      5-min Rain = 0
KSM1 242305Z 12012KT 32/00 A2966 RMK A01 T03190004  RH  013%=      5-min Rain = 0
KSM1 242310Z 12012KT 32/01 A2966 RMK A01 T03170006  RH  014%=      5-min Rain = 0
KSM1 242315Z 12011KT 32/01 A2966 RMK A01 T03160005  RH  014%=      5-min Rain = 0
KSM1 242320Z 15009KT 32/00 A2966 RMK A01 T03150004  RH  014%=      5-min Rain = 0
KSM1 242325Z 13009KT 31/00 A2965 RMK A01 T03130002  RH  014%=      5-min Rain = 0
KSM1 242330Z 13008KT 31/01 A2965 RMK A01 T03130005  RH  014%=      5-min Rain = 0
KSM1 242335Z 15008KT 31/01 A2965 RMK A01 T03130006  RH  014%=      5-min Rain = 0
KSM1 242340Z 15009KT 31/01 A2966 RMK A01 T03120005  RH  014%=      5-min Rain = 0
KSM1 242345Z 16009KT 31/00 A2967 RMK A01 T03120004  RH  014%=      5-min Rain = 0
KSM1 242350Z 15016G28KT 31/02 A2967 RMK A01 T03080021  RH  017%=      5-min Rain = 0
KSM1 242355Z 16020G29KT 29/07 A2968 RMK A01 T02930067  RH  025%=      5-min Rain = 0
KSM1 250000Z 16018G27KT 29/07 A2968 RMK A01 T02860067  RH  026%=      5-min Rain = 0
KSM1 250005Z 15024G30KT 28/06 A2967 RMK A01 T02810056  RH  024%=      5-min Rain = 0
KSM1 250010Z 15021G30KT 28/05 A2967 RMK A01 T02790052  RH  024%=      5-min Rain = 0
KSM1 250015Z 15020G28KT 28/05 A2967 RMK A01 T02780050  RH  024%=      5-min Rain = 0
KSM1 250020Z 15020G27KT 28/05 A2967 RMK A01 T02780053  RH  024%=      5-min Rain = 0
KSM1 250025Z 15023G28KT 28/06 A2967 RMK A01 T02750058  RH  026%=      5-min Rain = 0
KSM1 250030Z 15022G31KT 27/05 A2967 RMK A01 T02730052  RH  025%=      5-min Rain = 0
KSM1 250035Z 15023G32KT 27/05 A2967 RMK A01 T02720047  RH  024%=      5-min Rain = 0
KSM1 250040Z 15019G28KT 27/05 A2967 RMK A01 T02700046  RH  024%=      5-min Rain = 0
KSM1 250045Z 15020G27KT 27/04 A2967 RMK A01 T02690040  RH  023%=      5-min Rain = 0
KSM1 250050Z 15018G25KT 27/04 A2967 RMK A01 T02680038  RH  023%=      5-min Rain = 0
KSM1 250055Z 15017G25KT 27/04 A2967 RMK A01 T02670037  RH  023%=      5-min Rain = 0
KSM1 250100Z 14019G24KT 27/04 A2966 RMK A01 T02650035  RH  023%=      5-min Rain = 0
KSM1 250105Z 14017KT 26/04 A2966 RMK A01 T02620040  RH  024%=      5-min Rain = 0
KSM1 250110Z 14016G22KT 26/04 A2966 RMK A01 T02610041  RH  025%=      5-min Rain = 0
KSM1 250115Z 15014KT 26/04 A2966 RMK A01 T02610044  RH  025%=      5-min Rain = 0
KSM1 250120Z 15014KT 26/04 A2966 RMK A01 T02600044  RH  025%=      5-min Rain = 0
KSM1 250125Z 16013G18KT 26/05 A2966 RMK A01 T02590045  RH  026%=      5-min Rain = 0
KSM1 250130Z 17014KT 26/05 A2966 RMK A01 T02580045  RH  026%=      5-min Rain = 0
KSM1 250135Z 17013KT 26/05 A2967 RMK A01 T02560046  RH  026%=      5-min Rain = 0
KSM1 250140Z 17013G18KT 25/05 A2968 RMK A01 T02540048  RH  027%=      5-min Rain = 0
KSM1 250145Z 17012KT 25/05 A2968 RMK A01 T02520048  RH  027%=      5-min Rain = 0
KSM1 250150Z 16010G15KT 25/05 A2968 RMK A01 T02500047  RH  028%=      5-min Rain = 0
KSM1 250155Z 17013G18KT 25/05 A2968 RMK A01 T02490047  RH  028%=      5-min Rain = 0
KSM1 250200Z 17010KT 25/05 A2968 RMK A01 T02470047  RH  028%=      5-min Rain = 0
KSM1 250205Z 16011KT 25/05 A2968 RMK A01 T02460047  RH  028%=      5-min Rain = 0
KSM1 250210Z 15012KT 25/05 A2969 RMK A01 T02450047  RH  028%=      5-min Rain = 0
KSM1 250215Z 16010KT 24/05 A297 RMK A01 T02430048  RH  029%=      5-min Rain = 0
KSM1 250220Z 16010KT 24/05 A297 RMK A01 T02410048  RH  029%=      5-min Rain = 0
KSM1 250225Z 16009KT 24/05 A297 RMK A01 T02400048  RH  029%=      5-min Rain = 0
KSM1 250230Z 15008KT 24/05 A297 RMK A01 T02390048  RH  030%=      5-min Rain = 0
KSM1 250235Z 14009KT 24/05 A2971 RMK A01 T02380047  RH  030%=      5-min Rain = 0
KSM1 250240Z 14009KT 24/05 A2971 RMK A01 T02360047  RH  030%=      5-min Rain = 0
KSM1 250245Z 14009KT 24/05 A2971 RMK A01 T02350046  RH  030%=      5-min Rain = 0
KSM1 250250Z 13009KT 23/05 A297 RMK A01 T02330046  RH  030%=      5-min Rain = 0
KSM1 250255Z 13009KT 23/04 A297 RMK A01 T02310044  RH  030%=      5-min Rain = 0
KSM1 250300Z 13009KT 23/04 A2969 RMK A01 T02300043  RH  030%=      5-min Rain = 0
KSM1 250305Z 13007KT 23/04 A2969 RMK A01 T02290042  RH  030%=      5-min Rain = 0
KSM1 250310Z 11008KT 23/04 A2968 RMK A01 T02260042  RH  031%=      5-min Rain = 0
KSM1 250315Z 10009KT 23/04 A2969 RMK A01 T02250042  RH  031%=      5-min Rain = 0
KSM1 250320Z 09009KT 22/04 A2968 RMK A01 T02210044  RH  032%=      5-min Rain = 0
KSM1 250325Z 09010KT 22/04 A2969 RMK A01 T02180043  RH  032%=      5-min Rain = 0
KSM1 250330Z 10011KT 22/04 A2969 RMK A01 T02170044  RH  033%=      5-min Rain = 0
KSM1 250335Z 14008KT 22/04 A2969 RMK A01 T02180043  RH  033%=      5-min Rain = 0
KSM1 250340Z 10010G15KT 22/04 A2969 RMK A01 T02170044  RH  033%=      5-min Rain = 0
KSM1 250345Z 09015KT 22/06 A2969 RMK A01 T02180058  RH  036%=      5-min Rain = 0
KSM1 250350Z 08014G20KT 21/07 A2969 RMK A01 T02130070  RH  041%=      5-min Rain = 0
KSM1 250355Z 08014KT 21/08 A297 RMK A01 T02080075  RH  044%=      5-min Rain = 0
KSM1 250400Z 08014KT 20/08 A297 RMK A01 T02040080  RH  046%=      5-min Rain = 0
KSM1 250405Z 09013KT 20/08 A2971 RMK A01 T02000083  RH  048%=      5-min Rain = 0
KSM1 250410Z 09013KT 20/09 A2973 RMK A01 T01970086  RH  050%=      5-min Rain = 0
KSM1 250415Z 10012KT 19/09 A2974 RMK A01 T01940087  RH  051%=      5-min Rain = 0
KSM1 250420Z 10011KT 19/09 A2975 RMK A01 T01930088  RH  052%=      5-min Rain = 0
KSM1 250425Z 10012G17KT 19/09 A2976 RMK A01 T01920089  RH  052%=      5-min Rain = 0
KSM1 250430Z 10015G20KT 19/09 A2976 RMK A01 T01920090  RH  053%=      5-min Rain = 0
KSM1 250435Z 10014G19KT 19/09 A2977 RMK A01 T01920090  RH  053%=      5-min Rain = 0
KSM1 250440Z 09015KT 19/09 A2978 RMK A01 T01900091  RH  054%=      5-min Rain = 0
KSM1 250445Z 10015KT 19/09 A2978 RMK A01 T01900091  RH  054%=      5-min Rain = 0
KSM1 250450Z 11016KT 19/09 A2978 RMK A01 T01910092  RH  054%=      5-min Rain = 0
KSM1 250455Z 11013KT 19/09 A2979 RMK A01 T01910094  RH  055%=      5-min Rain = 0

Page generated in 0.0293 seconds.